sensor_id;sensor_type;location;lat;lon;timestamp;temperature;humidity
16032;DHT22;8120;48.308;8.914;2024-01-06T00:01:26;4.00;86.40
16032;DHT22;8120;48.308;8.914;2024-01-06T00:03:55;4.00;86.50
16032;DHT22;8120;48.308;8.914;2024-01-06T00:06:25;4.00;86.60
16032;DHT22;8120;48.308;8.914;2024-01-06T00:08:53;4.00;85.60
16032;DHT22;8120;48.308;8.914;2024-01-06T00:11:21;3.90;86.00
16032;DHT22;8120;48.308;8.914;2024-01-06T00:13:49;3.90;86.00
16032;DHT22;8120;48.308;8.914;2024-01-06T00:16:18;3.90;85.80
16032;DHT22;8120;48.308;8.914;2024-01-06T00:18:46;3.90;86.00
16032;DHT22;8120;48.308;8.914;2024-01-06T00:21:14;3.90;85.90
16032;DHT22;8120;48.308;8.914;2024-01-06T00:23:44;3.90;85.80
16032;DHT22;8120;48.308;8.914;2024-01-06T00:26:11;3.90;86.00
16032;DHT22;8120;48.308;8.914;2024-01-06T00:28:39;3.80;85.40
16032;DHT22;8120;48.308;8.914;2024-01-06T00:31:08;3.80;85.40
16032;DHT22;8120;48.308;8.914;2024-01-06T00:33:36;3.80;85.40
16032;DHT22;8120;48.308;8.914;2024-01-06T00:36:04;3.90;85.30
16032;DHT22;8120;48.308;8.914;2024-01-06T00:38:34;3.80;85.30
16032;DHT22;8120;48.308;8.914;2024-01-06T00:41:03;3.80;84.80
16032;DHT22;8120;48.308;8.914;2024-01-06T00:43:31;3.90;84.70
16032;DHT22;8120;48.308;8.914;2024-01-06T00:45:59;3.80;85.00
16032;DHT22;8120;48.308;8.914;2024-01-06T00:48:27;3.80;84.80
16032;DHT22;8120;48.308;8.914;2024-01-06T00:50:55;3.80;85.10
16032;DHT22;8120;48.308;8.914;2024-01-06T00:53:23;3.70;84.80
16032;DHT22;8120;48.308;8.914;2024-01-06T00:55:51;3.80;84.00
16032;DHT22;8120;48.308;8.914;2024-01-06T00:58:21;3.80;83.40
16032;DHT22;8120;48.308;8.914;2024-01-06T01:00:48;3.80;82.70
16032;DHT22;8120;48.308;8.914;2024-01-06T01:03:17;3.80;82.80
16032;DHT22;8120;48.308;8.914;2024-01-06T01:05:45;3.70;83.60
16032;DHT22;8120;48.308;8.914;2024-01-06T01:08:13;3.80;83.00
16032;DHT22;8120;48.308;8.914;2024-01-06T01:10:40;3.70;84.50
16032;DHT22;8120;48.308;8.914;2024-01-06T01:13:08;3.60;84.40
16032;DHT22;8120;48.308;8.914;2024-01-06T01:15:38;3.60;85.30
16032;DHT22;8120;48.308;8.914;2024-01-06T01:18:06;3.60;85.90
16032;DHT22;8120;48.308;8.914;2024-01-06T01:20:34;3.60;86.50
16032;DHT22;8120;48.308;8.914;2024-01-06T01:23:02;3.50;86.30
16032;DHT22;8120;48.308;8.914;2024-01-06T01:25:30;3.50;86.40
16032;DHT22;8120;48.308;8.914;2024-01-06T01:27:58;3.50;86.60
16032;DHT22;8120;48.308;8.914;2024-01-06T01:30:26;3.50;87.20
16032;DHT22;8120;48.308;8.914;2024-01-06T01:32:56;3.50;87.50
16032;DHT22;8120;48.308;8.914;2024-01-06T01:35:24;3.40;88.20
16032;DHT22;8120;48.308;8.914;2024-01-06T01:37:52;3.40;89.10
16032;DHT22;8120;48.308;8.914;2024-01-06T01:40:19;3.40;89.60
16032;DHT22;8120;48.308;8.914;2024-01-06T01:42:47;3.40;90.20
16032;DHT22;8120;48.308;8.914;2024-01-06T01:45:15;3.40;90.60
16032;DHT22;8120;48.308;8.914;2024-01-06T01:47:43;3.30;91.00
16032;DHT22;8120;48.308;8.914;2024-01-06T01:50:14;3.30;92.00
16032;DHT22;8120;48.308;8.914;2024-01-06T01:52:42;3.20;92.90
16032;DHT22;8120;48.308;8.914;2024-01-06T01:55:10;3.20;93.50
16032;DHT22;8120;48.308;8.914;2024-01-06T01:57:38;3.20;93.80
16032;DHT22;8120;48.308;8.914;2024-01-06T02:00:07;3.10;94.00
16032;DHT22;8120;48.308;8.914;2024-01-06T02:02:36;3.20;94.00
16032;DHT22;8120;48.308;8.914;2024-01-06T02:05:04;3.20;94.00
16032;DHT22;8120;48.308;8.914;2024-01-06T02:07:34;3.10;94.20
16032;DHT22;8120;48.308;8.914;2024-01-06T02:10:02;3.10;94.20
16032;DHT22;8120;48.308;8.914;2024-01-06T02:12:30;3.20;94.20
16032;DHT22;8120;48.308;8.914;2024-01-06T02:14:58;3.10;94.20
16032;DHT22;8120;48.308;8.914;2024-01-06T02:17:26;3.20;94.30
16032;DHT22;8120;48.308;8.914;2024-01-06T02:19:54;3.10;94.10
16032;DHT22;8120;48.308;8.914;2024-01-06T02:22:24;3.10;93.90
16032;DHT22;8120;48.308;8.914;2024-01-06T02:24:53;3.10;93.70
16032;DHT22;8120;48.308;8.914;2024-01-06T02:27:21;3.20;93.30
16032;DHT22;8120;48.308;8.914;2024-01-06T02:29:49;3.20;92.90
16032;DHT22;8120;48.308;8.914;2024-01-06T02:32:17;3.20;92.60
16032;DHT22;8120;48.308;8.914;2024-01-06T02:34:45;3.20;92.60
16032;DHT22;8120;48.308;8.914;2024-01-06T02:37:12;3.10;92.40
16032;DHT22;8120;48.308;8.914;2024-01-06T02:39:42;3.20;92.70
16032;DHT22;8120;48.308;8.914;2024-01-06T02:42:10;3.20;92.80
16032;DHT22;8120;48.308;8.914;2024-01-06T02:44:38;3.20;92.90
16032;DHT22;8120;48.308;8.914;2024-01-06T02:47:06;3.20;92.90
16032;DHT22;8120;48.308;8.914;2024-01-06T02:49:33;3.20;92.60
16032;DHT22;8120;48.308;8.914;2024-01-06T02:52:01;3.10;92.70
16032;DHT22;8120;48.308;8.914;2024-01-06T02:54:29;3.20;92.50
16032;DHT22;8120;48.308;8.914;2024-01-06T02:56:59;3.20;92.40
16032;DHT22;8120;48.308;8.914;2024-01-06T02:59:26;3.30;92.20
16032;DHT22;8120;48.308;8.914;2024-01-06T03:01:54;3.30;91.90
16032;DHT22;8120;48.308;8.914;2024-01-06T03:04:22;3.20;91.80
16032;DHT22;8120;48.308;8.914;2024-01-06T03:06:50;3.20;92.10
16032;DHT22;8120;48.308;8.914;2024-01-06T03:09:20;3.20;92.30
16032;DHT22;8120;48.308;8.914;2024-01-06T03:11:48;3.10;92.30
16032;DHT22;8120;48.308;8.914;2024-01-06T03:14:17;3.20;92.30
16032;DHT22;8120;48.308;8.914;2024-01-06T03:16:45;3.20;92.10
16032;DHT22;8120;48.308;8.914;2024-01-06T03:19:13;3.20;92.10
16032;DHT22;8120;48.308;8.914;2024-01-06T03:21:40;3.20;92.20
16032;DHT22;8120;48.308;8.914;2024-01-06T03:24:08;3.20;91.80
16032;DHT22;8120;48.308;8.914;2024-01-06T03:26:36;3.20;91.50
16032;DHT22;8120;48.308;8.914;2024-01-06T03:29:04;3.20;91.30
16032;DHT22;8120;48.308;8.914;2024-01-06T03:31:34;3.10;91.20
16032;DHT22;8120;48.308;8.914;2024-01-06T03:34:02;3.10;91.10
16032;DHT22;8120;48.308;8.914;2024-01-06T03:36:30;3.10;91.20
16032;DHT22;8120;48.308;8.914;2024-01-06T03:38:58;3.10;91.30
16032;DHT22;8120;48.308;8.914;2024-01-06T03:41:26;3.10;91.60
16032;DHT22;8120;48.308;8.914;2024-01-06T03:43:54;3.00;91.60
16032;DHT22;8120;48.308;8.914;2024-01-06T03:46:22;3.00;91.90
16032;DHT22;8120;48.308;8.914;2024-01-06T03:48:51;3.00;92.00
16032;DHT22;8120;48.308;8.914;2024-01-06T03:51:29;3.00;92.50
16032;DHT22;8120;48.308;8.914;2024-01-06T03:53:57;2.90;93.10
16032;DHT22;8120;48.308;8.914;2024-01-06T03:56:25;2.90;93.40
16032;DHT22;8120;48.308;8.914;2024-01-06T03:58:53;2.90;93.50
16032;DHT22;8120;48.308;8.914;2024-01-06T04:01:21;2.90;93.60
16032;DHT22;8120;48.308;8.914;2024-01-06T04:03:49;2.90;93.60
16032;DHT22;8120;48.308;8.914;2024-01-06T04:06:17;2.90;93.50
16032;DHT22;8120;48.308;8.914;2024-01-06T04:08:46;2.90;93.10
16032;DHT22;8120;48.308;8.914;2024-01-06T04:11:14;2.90;93.00
16032;DHT22;8120;48.308;8.914;2024-01-06T04:13:42;2.90;92.80
16032;DHT22;8120;48.308;8.914;2024-01-06T04:16:10;2.90;92.60
16032;DHT22;8120;48.308;8.914;2024-01-06T04:18:38;2.80;92.20
16032;DHT22;8120;48.308;8.914;2024-01-06T04:21:06;2.80;91.90
16032;DHT22;8120;48.308;8.914;2024-01-06T04:23:35;2.80;91.70
16032;DHT22;8120;48.308;8.914;2024-01-06T04:26:04;2.80;91.70
16032;DHT22;8120;48.308;8.914;2024-01-06T04:28:33;2.80;91.90
16032;DHT22;8120;48.308;8.914;2024-01-06T04:31:01;2.80;91.80
16032;DHT22;8120;48.308;8.914;2024-01-06T04:33:29;2.80;91.90
16032;DHT22;8120;48.308;8.914;2024-01-06T04:35:58;2.80;92.00
16032;DHT22;8120;48.308;8.914;2024-01-06T04:38:28;2.80;92.10
16032;DHT22;8120;48.308;8.914;2024-01-06T04:40:56;2.80;91.60
16032;DHT22;8120;48.308;8.914;2024-01-06T04:43:25;2.70;91.60
16032;DHT22;8120;48.308;8.914;2024-01-06T04:45:53;2.70;91.60
16032;DHT22;8120;48.308;8.914;2024-01-06T04:48:21;2.80;91.60
16032;DHT22;8120;48.308;8.914;2024-01-06T04:50:49;2.80;91.40
16032;DHT22;8120;48.308;8.914;2024-01-06T04:53:17;2.80;91.40
16032;DHT22;8120;48.308;8.914;2024-01-06T04:55:45;2.80;91.50
16032;DHT22;8120;48.308;8.914;2024-01-06T04:58:13;2.80;91.70
16032;DHT22;8120;48.308;8.914;2024-01-06T05:00:42;2.80;91.80
16032;DHT22;8120;48.308;8.914;2024-01-06T05:03:10;2.70;91.60
16032;DHT22;8120;48.308;8.914;2024-01-06T05:05:38;2.70;91.60
16032;DHT22;8120;48.308;8.914;2024-01-06T05:08:06;2.70;91.50
16032;DHT22;8120;48.308;8.914;2024-01-06T05:10:34;2.70;91.40
16032;DHT22;8120;48.308;8.914;2024-01-06T05:13:02;2.70;91.30
16032;DHT22;8120;48.308;8.914;2024-01-06T05:15:30;2.70;91.30
16032;DHT22;8120;48.308;8.914;2024-01-06T05:18:00;2.70;91.30
16032;DHT22;8120;48.308;8.914;2024-01-06T05:20:28;2.60;91.20
16032;DHT22;8120;48.308;8.914;2024-01-06T05:22:56;2.60;91.10
16032;DHT22;8120;48.308;8.914;2024-01-06T05:25:24;2.60;91.10
16032;DHT22;8120;48.308;8.914;2024-01-06T05:27:51;2.60;91.10
16032;DHT22;8120;48.308;8.914;2024-01-06T05:30:19;2.60;91.10
16032;DHT22;8120;48.308;8.914;2024-01-06T05:32:47;2.60;91.00
16032;DHT22;8120;48.308;8.914;2024-01-06T05:35:17;2.60;91.20
16032;DHT22;8120;48.308;8.914;2024-01-06T05:37:45;2.60;91.50
16032;DHT22;8120;48.308;8.914;2024-01-06T05:40:14;2.60;91.60
16032;DHT22;8120;48.308;8.914;2024-01-06T05:42:42;2.60;91.60
16032;DHT22;8120;48.308;8.914;2024-01-06T05:45:10;2.60;91.80
16032;DHT22;8120;48.308;8.914;2024-01-06T05:47:39;2.60;91.80
16032;DHT22;8120;48.308;8.914;2024-01-06T05:50:08;2.50;92.10
16032;DHT22;8120;48.308;8.914;2024-01-06T05:52:38;2.50;92.00
16032;DHT22;8120;48.308;8.914;2024-01-06T05:55:06;2.50;92.10
16032;DHT22;8120;48.308;8.914;2024-01-06T05:57:35;2.50;92.10
16032;DHT22;8120;48.308;8.914;2024-01-06T06:00:06;2.40;92.10
16032;DHT22;8120;48.308;8.914;2024-01-06T06:02:35;2.40;92.30
16032;DHT22;8120;48.308;8.914;2024-01-06T06:05:03;2.40;92.30
16032;DHT22;8120;48.308;8.914;2024-01-06T06:07:31;2.40;92.30
16032;DHT22;8120;48.308;8.914;2024-01-06T06:10:08;2.40;92.30
16032;DHT22;8120;48.308;8.914;2024-01-06T06:12:37;2.40;92.50
16032;DHT22;8120;48.308;8.914;2024-01-06T06:15:06;2.40;92.60
16032;DHT22;8120;48.308;8.914;2024-01-06T06:17:35;2.40;92.60
16032;DHT22;8120;48.308;8.914;2024-01-06T06:20:03;2.40;92.60
16032;DHT22;8120;48.308;8.914;2024-01-06T06:22:33;2.40;92.70
16032;DHT22;8120;48.308;8.914;2024-01-06T06:25:01;2.40;92.80
16032;DHT22;8120;48.308;8.914;2024-01-06T06:27:31;2.40;92.90
16032;DHT22;8120;48.308;8.914;2024-01-06T06:29:59;2.40;92.80
16032;DHT22;8120;48.308;8.914;2024-01-06T06:32:27;2.40;92.70
16032;DHT22;8120;48.308;8.914;2024-01-06T06:34:55;2.40;92.40
16032;DHT22;8120;48.308;8.914;2024-01-06T06:37:23;2.40;92.40
16032;DHT22;8120;48.308;8.914;2024-01-06T06:39:51;2.40;92.40
16032;DHT22;8120;48.308;8.914;2024-01-06T06:42:19;2.40;92.50
16032;DHT22;8120;48.308;8.914;2024-01-06T06:44:49;2.40;92.40
16032;DHT22;8120;48.308;8.914;2024-01-06T06:47:17;2.30;92.50
16032;DHT22;8120;48.308;8.914;2024-01-06T06:49:46;2.30;92.60
16032;DHT22;8120;48.308;8.914;2024-01-06T06:52:13;2.30;92.70
16032;DHT22;8120;48.308;8.914;2024-01-06T06:54:41;2.30;92.80
16032;DHT22;8120;48.308;8.914;2024-01-06T06:57:09;2.30;92.80
16032;DHT22;8120;48.308;8.914;2024-01-06T06:59:38;2.30;92.80
16032;DHT22;8120;48.308;8.914;2024-01-06T07:02:07;2.30;93.00
16032;DHT22;8120;48.308;8.914;2024-01-06T07:04:36;2.30;93.20
16032;DHT22;8120;48.308;8.914;2024-01-06T07:07:04;2.30;93.30
16032;DHT22;8120;48.308;8.914;2024-01-06T07:09:32;2.30;93.20
16032;DHT22;8120;48.308;8.914;2024-01-06T07:12:00;2.30;92.90
16032;DHT22;8120;48.308;8.914;2024-01-06T07:14:28;2.30;92.80
16032;DHT22;8120;48.308;8.914;2024-01-06T07:16:55;2.40;92.60
16032;DHT22;8120;48.308;8.914;2024-01-06T07:19:25;2.40;92.50
16032;DHT22;8120;48.308;8.914;2024-01-06T07:21:53;2.40;92.30
16032;DHT22;8120;48.308;8.914;2024-01-06T07:24:21;2.40;92.00
16032;DHT22;8120;48.308;8.914;2024-01-06T07:26:49;2.50;91.60
16032;DHT22;8120;48.308;8.914;2024-01-06T07:29:17;2.40;91.10
16032;DHT22;8120;48.308;8.914;2024-01-06T07:31:46;2.40;90.70
16032;DHT22;8120;48.308;8.914;2024-01-06T07:34:15;2.50;90.50
16032;DHT22;8120;48.308;8.914;2024-01-06T07:36:44;2.40;90.30
16032;DHT22;8120;48.308;8.914;2024-01-06T07:39:12;2.50;90.10
16032;DHT22;8120;48.308;8.914;2024-01-06T07:41:40;2.50;90.00
16032;DHT22;8120;48.308;8.914;2024-01-06T07:44:08;2.50;89.90
16032;DHT22;8120;48.308;8.914;2024-01-06T07:46:36;2.50;90.00
16032;DHT22;8120;48.308;8.914;2024-01-06T07:49:04;2.50;90.30
16032;DHT22;8120;48.308;8.914;2024-01-06T07:51:32;2.50;90.30
16032;DHT22;8120;48.308;8.914;2024-01-06T07:54:02;2.50;90.30
16032;DHT22;8120;48.308;8.914;2024-01-06T07:56:32;2.50;90.60
16032;DHT22;8120;48.308;8.914;2024-01-06T07:59:00;2.50;90.60
16032;DHT22;8120;48.308;8.914;2024-01-06T08:01:28;2.50;90.60
16032;DHT22;8120;48.308;8.914;2024-01-06T08:03:56;2.50;90.60
16032;DHT22;8120;48.308;8.914;2024-01-06T08:06:25;2.60;90.60
16032;DHT22;8120;48.308;8.914;2024-01-06T08:08:53;2.60;90.00
16032;DHT22;8120;48.308;8.914;2024-01-06T08:11:22;2.60;89.40
16032;DHT22;8120;48.308;8.914;2024-01-06T08:13:50;2.60;89.10
16032;DHT22;8120;48.308;8.914;2024-01-06T08:16:19;2.60;89.20
16032;DHT22;8120;48.308;8.914;2024-01-06T08:18:47;2.70;89.10
16032;DHT22;8120;48.308;8.914;2024-01-06T08:21:15;2.70;89.00
16032;DHT22;8120;48.308;8.914;2024-01-06T08:23:43;2.80;88.60
16032;DHT22;8120;48.308;8.914;2024-01-06T08:26:12;2.80;88.20
16032;DHT22;8120;48.308;8.914;2024-01-06T08:28:41;2.70;88.40
16032;DHT22;8120;48.308;8.914;2024-01-06T08:31:09;2.80;88.80
16032;DHT22;8120;48.308;8.914;2024-01-06T08:33:37;2.80;88.90
16032;DHT22;8120;48.308;8.914;2024-01-06T08:36:06;2.80;88.90
16032;DHT22;8120;48.308;8.914;2024-01-06T08:38:34;2.80;89.00
16032;DHT22;8120;48.308;8.914;2024-01-06T08:41:03;2.90;89.00
16032;DHT22;8120;48.308;8.914;2024-01-06T08:43:31;2.90;89.10
16032;DHT22;8120;48.308;8.914;2024-01-06T08:46:00;3.00;88.90
16032;DHT22;8120;48.308;8.914;2024-01-06T08:48:29;3.00;88.80
16032;DHT22;8120;48.308;8.914;2024-01-06T08:51:01;3.00;88.70
16032;DHT22;8120;48.308;8.914;2024-01-06T08:53:29;3.00;88.80
16032;DHT22;8120;48.308;8.914;2024-01-06T08:55:57;3.10;88.80
16032;DHT22;8120;48.308;8.914;2024-01-06T08:58:25;3.20;88.70
16032;DHT22;8120;48.308;8.914;2024-01-06T09:00:54;3.30;87.70
16032;DHT22;8120;48.308;8.914;2024-01-06T09:03:23;3.30;87.10
16032;DHT22;8120;48.308;8.914;2024-01-06T09:05:55;3.20;87.10
16032;DHT22;8120;48.308;8.914;2024-01-06T09:08:23;3.20;87.70
16032;DHT22;8120;48.308;8.914;2024-01-06T09:10:51;3.30;87.20
16032;DHT22;8120;48.308;8.914;2024-01-06T09:13:22;3.40;86.80
16032;DHT22;8120;48.308;8.914;2024-01-06T09:15:50;3.40;85.70
16032;DHT22;8120;48.308;8.914;2024-01-06T09:18:19;3.50;84.80
16032;DHT22;8120;48.308;8.914;2024-01-06T09:20:48;3.50;84.80
16032;DHT22;8120;48.308;8.914;2024-01-06T09:23:16;3.60;83.90
16032;DHT22;8120;48.308;8.914;2024-01-06T09:25:48;3.60;83.30
16032;DHT22;8120;48.308;8.914;2024-01-06T09:28:16;3.60;83.50
16032;DHT22;8120;48.308;8.914;2024-01-06T09:30:44;3.60;82.60
16032;DHT22;8120;48.308;8.914;2024-01-06T09:33:12;3.40;83.10
16032;DHT22;8120;48.308;8.914;2024-01-06T09:35:43;3.50;83.40
16032;DHT22;8120;48.308;8.914;2024-01-06T09:38:12;3.50;82.80
16032;DHT22;8120;48.308;8.914;2024-01-06T09:40:42;3.50;82.80
16032;DHT22;8120;48.308;8.914;2024-01-06T09:43:11;3.50;82.90
16032;DHT22;8120;48.308;8.914;2024-01-06T09:45:39;3.50;81.70
16032;DHT22;8120;48.308;8.914;2024-01-06T09:48:11;3.60;82.40
16032;DHT22;8120;48.308;8.914;2024-01-06T09:50:41;3.70;80.80
16032;DHT22;8120;48.308;8.914;2024-01-06T09:53:10;3.60;81.40
16032;DHT22;8120;48.308;8.914;2024-01-06T09:55:40;3.60;79.80
16032;DHT22;8120;48.308;8.914;2024-01-06T09:58:09;3.80;80.50
16032;DHT22;8120;48.308;8.914;2024-01-06T10:00:37;3.80;79.70
16032;DHT22;8120;48.308;8.914;2024-01-06T10:03:05;3.90;79.50
16032;DHT22;8120;48.308;8.914;2024-01-06T10:05:34;4.00;78.80
16032;DHT22;8120;48.308;8.914;2024-01-06T10:08:03;4.00;78.30
16032;DHT22;8120;48.308;8.914;2024-01-06T10:10:33;4.00;78.20
16032;DHT22;8120;48.308;8.914;2024-01-06T10:13:03;4.20;78.90
16032;DHT22;8120;48.308;8.914;2024-01-06T10:15:31;4.20;78.30
16032;DHT22;8120;48.308;8.914;2024-01-06T10:17:59;4.20;78.10
16032;DHT22;8120;48.308;8.914;2024-01-06T10:20:29;4.20;77.50
16032;DHT22;8120;48.308;8.914;2024-01-06T10:23:04;4.20;77.50
16032;DHT22;8120;48.308;8.914;2024-01-06T10:25:32;4.20;76.90
16032;DHT22;8120;48.308;8.914;2024-01-06T10:28:01;4.20;77.40
16032;DHT22;8120;48.308;8.914;2024-01-06T10:30:31;4.20;77.70
16032;DHT22;8120;48.308;8.914;2024-01-06T10:32:59;4.10;76.90
16032;DHT22;8120;48.308;8.914;2024-01-06T10:35:27;4.10;76.30
16032;DHT22;8120;48.308;8.914;2024-01-06T10:37:55;4.20;76.00
16032;DHT22;8120;48.308;8.914;2024-01-06T10:40:25;4.20;76.10
16032;DHT22;8120;48.308;8.914;2024-01-06T10:42:53;4.30;76.20
16032;DHT22;8120;48.308;8.914;2024-01-06T10:45:24;4.30;76.90
16032;DHT22;8120;48.308;8.914;2024-01-06T10:47:55;4.30;76.70
16032;DHT22;8120;48.308;8.914;2024-01-06T10:50:23;4.50;76.30
16032;DHT22;8120;48.308;8.914;2024-01-06T10:52:52;4.40;75.20
16032;DHT22;8120;48.308;8.914;2024-01-06T10:55:21;4.50;74.70
16032;DHT22;8120;48.308;8.914;2024-01-06T10:57:51;4.30;74.90
16032;DHT22;8120;48.308;8.914;2024-01-06T11:00:21;4.20;76.70
16032;DHT22;8120;48.308;8.914;2024-01-06T11:02:49;4.20;75.90
16032;DHT22;8120;48.308;8.914;2024-01-06T11:05:21;4.40;76.20
16032;DHT22;8120;48.308;8.914;2024-01-06T11:07:50;4.40;75.80
16032;DHT22;8120;48.308;8.914;2024-01-06T11:10:19;4.30;75.80
16032;DHT22;8120;48.308;8.914;2024-01-06T11:13:10;4.50;75.40
16032;DHT22;8120;48.308;8.914;2024-01-06T11:15:40;4.60;76.10
16032;DHT22;8120;48.308;8.914;2024-01-06T11:18:09;4.40;74.70
16032;DHT22;8120;48.308;8.914;2024-01-06T11:20:38;4.40;74.20
16032;DHT22;8120;48.308;8.914;2024-01-06T11:23:19;4.30;74.80
16032;DHT22;8120;48.308;8.914;2024-01-06T11:25:48;4.20;76.20
16032;DHT22;8120;48.308;8.914;2024-01-06T11:28:16;4.20;75.30
16032;DHT22;8120;48.308;8.914;2024-01-06T11:30:45;4.20;75.50
16032;DHT22;8120;48.308;8.914;2024-01-06T11:33:13;4.30;75.80
16032;DHT22;8120;48.308;8.914;2024-01-06T11:35:43;4.10;75.70
16032;DHT22;8120;48.308;8.914;2024-01-06T11:38:16;4.10;76.00
16032;DHT22;8120;48.308;8.914;2024-01-06T11:40:44;4.10;76.30
16032;DHT22;8120;48.308;8.914;2024-01-06T11:43:12;4.10;75.00
16032;DHT22;8120;48.308;8.914;2024-01-06T11:45:42;4.10;75.70
16032;DHT22;8120;48.308;8.914;2024-01-06T11:48:11;4.30;75.20
16032;DHT22;8120;48.308;8.914;2024-01-06T11:50:41;4.20;75.30
16032;DHT22;8120;48.308;8.914;2024-01-06T11:53:09;4.20;75.70
16032;DHT22;8120;48.308;8.914;2024-01-06T11:55:38;4.10;75.80
16032;DHT22;8120;48.308;8.914;2024-01-06T11:58:07;4.00;76.80
16032;DHT22;8120;48.308;8.914;2024-01-06T12:00:35;4.00;76.10
16032;DHT22;8120;48.308;8.914;2024-01-06T12:03:06;4.00;77.00
16032;DHT22;8120;48.308;8.914;2024-01-06T12:05:34;4.00;77.30
16032;DHT22;8120;48.308;8.914;2024-01-06T12:08:04;4.00;77.20
16032;DHT22;8120;48.308;8.914;2024-01-06T12:10:34;4.20;77.50
16032;DHT22;8120;48.308;8.914;2024-01-06T12:13:05;4.20;76.80
16032;DHT22;8120;48.308;8.914;2024-01-06T12:15:36;4.20;76.40
16032;DHT22;8120;48.308;8.914;2024-01-06T12:18:07;4.10;77.00
16032;DHT22;8120;48.308;8.914;2024-01-06T12:20:35;4.10;77.50
16032;DHT22;8120;48.308;8.914;2024-01-06T12:23:04;4.00;77.60
16032;DHT22;8120;48.308;8.914;2024-01-06T12:25:34;4.10;78.10
16032;DHT22;8120;48.308;8.914;2024-01-06T12:28:06;4.10;77.60
16032;DHT22;8120;48.308;8.914;2024-01-06T12:30:35;4.00;78.30
16032;DHT22;8120;48.308;8.914;2024-01-06T12:33:04;3.90;78.60
16032;DHT22;8120;48.308;8.914;2024-01-06T12:35:32;3.90;78.60
16032;DHT22;8120;48.308;8.914;2024-01-06T12:38:03;3.90;79.10
16032;DHT22;8120;48.308;8.914;2024-01-06T12:40:35;3.80;78.60
16032;DHT22;8120;48.308;8.914;2024-01-06T12:43:04;3.60;79.20
16032;DHT22;8120;48.308;8.914;2024-01-06T12:45:32;3.70;79.70
16032;DHT22;8120;48.308;8.914;2024-01-06T12:48:00;3.80;79.50
16032;DHT22;8120;48.308;8.914;2024-01-06T12:50:28;3.60;79.70
16032;DHT22;8120;48.308;8.914;2024-01-06T12:52:56;3.70;81.00
16032;DHT22;8120;48.308;8.914;2024-01-06T12:55:25;3.70;80.40
16032;DHT22;8120;48.308;8.914;2024-01-06T12:57:53;3.80;80.40
16032;DHT22;8120;48.308;8.914;2024-01-06T13:00:22;3.90;80.40
16032;DHT22;8120;48.308;8.914;2024-01-06T13:02:49;3.90;80.40
16032;DHT22;8120;48.308;8.914;2024-01-06T13:05:17;3.90;80.90
16032;DHT22;8120;48.308;8.914;2024-01-06T13:07:46;4.00;80.80
16032;DHT22;8120;48.308;8.914;2024-01-06T13:10:15;3.80;80.90
16032;DHT22;8120;48.308;8.914;2024-01-06T13:12:45;3.60;81.40
16032;DHT22;8120;48.308;8.914;2024-01-06T13:15:13;3.50;82.80
16032;DHT22;8120;48.308;8.914;2024-01-06T13:17:41;3.50;83.70
16032;DHT22;8120;48.308;8.914;2024-01-06T13:20:09;3.50;83.90
16032;DHT22;8120;48.308;8.914;2024-01-06T13:22:37;3.40;84.70
16032;DHT22;8120;48.308;8.914;2024-01-06T13:25:07;3.50;84.90
16032;DHT22;8120;48.308;8.914;2024-01-06T13:27:36;3.50;84.30
16032;DHT22;8120;48.308;8.914;2024-01-06T13:30:06;3.50;84.40
16032;DHT22;8120;48.308;8.914;2024-01-06T13:32:34;3.40;85.30
16032;DHT22;8120;48.308;8.914;2024-01-06T13:35:03;3.50;85.50
16032;DHT22;8120;48.308;8.914;2024-01-06T13:37:32;3.50;85.00
16032;DHT22;8120;48.308;8.914;2024-01-06T13:40:00;3.60;85.20
16032;DHT22;8120;48.308;8.914;2024-01-06T13:42:28;3.70;84.90
16032;DHT22;8120;48.308;8.914;2024-01-06T13:44:56;3.70;84.70
16032;DHT22;8120;48.308;8.914;2024-01-06T13:47:28;3.70;84.30
16032;DHT22;8120;48.308;8.914;2024-01-06T13:49:57;3.80;84.50
16032;DHT22;8120;48.308;8.914;2024-01-06T13:52:25;3.80;83.50
16032;DHT22;8120;48.308;8.914;2024-01-06T13:54:53;3.60;83.70
16032;DHT22;8120;48.308;8.914;2024-01-06T13:57:21;3.60;84.50
16032;DHT22;8120;48.308;8.914;2024-01-06T13:59:49;3.80;84.20
16032;DHT22;8120;48.308;8.914;2024-01-06T14:02:17;3.80;83.40
16032;DHT22;8120;48.308;8.914;2024-01-06T14:04:47;3.80;83.80
16032;DHT22;8120;48.308;8.914;2024-01-06T14:07:15;3.80;83.80
16032;DHT22;8120;48.308;8.914;2024-01-06T14:09:46;3.80;83.80
16032;DHT22;8120;48.308;8.914;2024-01-06T14:12:14;3.80;84.10
16032;DHT22;8120;48.308;8.914;2024-01-06T14:14:42;3.90;84.40
16032;DHT22;8120;48.308;8.914;2024-01-06T14:17:10;3.80;83.50
16032;DHT22;8120;48.308;8.914;2024-01-06T14:19:38;3.70;83.00
16032;DHT22;8120;48.308;8.914;2024-01-06T14:22:07;3.70;82.40
16032;DHT22;8120;48.308;8.914;2024-01-06T14:24:35;3.70;82.60
16032;DHT22;8120;48.308;8.914;2024-01-06T14:27:03;3.70;82.10
16032;DHT22;8120;48.308;8.914;2024-01-06T14:29:31;3.60;82.40
16032;DHT22;8120;48.308;8.914;2024-01-06T14:31:59;3.60;83.30
16032;DHT22;8120;48.308;8.914;2024-01-06T14:34:27;3.60;82.20
16032;DHT22;8120;48.308;8.914;2024-01-06T14:36:55;3.60;83.30
16032;DHT22;8120;48.308;8.914;2024-01-06T14:39:24;3.50;83.00
16032;DHT22;8120;48.308;8.914;2024-01-06T14:41:52;3.50;83.20
16032;DHT22;8120;48.308;8.914;2024-01-06T14:44:20;3.50;83.10
16032;DHT22;8120;48.308;8.914;2024-01-06T14:46:48;3.50;83.60
16032;DHT22;8120;48.308;8.914;2024-01-06T14:49:17;3.50;83.80
16032;DHT22;8120;48.308;8.914;2024-01-06T14:51:45;3.50;83.60
16032;DHT22;8120;48.308;8.914;2024-01-06T14:54:13;3.50;83.50
16032;DHT22;8120;48.308;8.914;2024-01-06T14:56:43;3.50;83.60
16032;DHT22;8120;48.308;8.914;2024-01-06T14:59:13;3.40;84.30
16032;DHT22;8120;48.308;8.914;2024-01-06T15:01:44;3.50;84.40
16032;DHT22;8120;48.308;8.914;2024-01-06T15:04:12;3.50;84.70
16032;DHT22;8120;48.308;8.914;2024-01-06T15:06:40;3.50;84.10
16032;DHT22;8120;48.308;8.914;2024-01-06T15:09:08;3.40;85.00
16032;DHT22;8120;48.308;8.914;2024-01-06T15:11:36;3.40;84.70
16032;DHT22;8120;48.308;8.914;2024-01-06T15:14:05;3.40;85.00
16032;DHT22;8120;48.308;8.914;2024-01-06T15:16:35;3.30;85.60
16032;DHT22;8120;48.308;8.914;2024-01-06T15:19:04;3.30;86.70
16032;DHT22;8120;48.308;8.914;2024-01-06T15:21:34;3.30;86.90
16032;DHT22;8120;48.308;8.914;2024-01-06T15:24:04;3.20;86.60
16032;DHT22;8120;48.308;8.914;2024-01-06T15:26:32;3.10;87.10
16032;DHT22;8120;48.308;8.914;2024-01-06T15:29:00;3.00;87.40
16032;DHT22;8120;48.308;8.914;2024-01-06T15:31:30;3.00;88.20
16032;DHT22;8120;48.308;8.914;2024-01-06T15:33:58;3.00;88.90
16032;DHT22;8120;48.308;8.914;2024-01-06T15:36:26;2.90;89.00
16032;DHT22;8120;48.308;8.914;2024-01-06T15:38:54;2.80;89.60
16032;DHT22;8120;48.308;8.914;2024-01-06T15:41:22;2.80;90.00
16032;DHT22;8120;48.308;8.914;2024-01-06T15:43:50;2.80;90.40
16032;DHT22;8120;48.308;8.914;2024-01-06T15:46:18;2.70;90.40
16032;DHT22;8120;48.308;8.914;2024-01-06T15:48:48;2.70;90.30
16032;DHT22;8120;48.308;8.914;2024-01-06T15:51:16;2.70;91.10
16032;DHT22;8120;48.308;8.914;2024-01-06T15:53:44;2.70;91.50
16032;DHT22;8120;48.308;8.914;2024-01-06T15:56:12;2.80;92.40
16032;DHT22;8120;48.308;8.914;2024-01-06T15:58:40;2.90;92.70
16032;DHT22;8120;48.308;8.914;2024-01-06T16:01:08;2.80;91.70
16032;DHT22;8120;48.308;8.914;2024-01-06T16:03:36;2.80;91.90
16032;DHT22;8120;48.308;8.914;2024-01-06T16:06:06;2.80;92.10
16032;DHT22;8120;48.308;8.914;2024-01-06T16:08:35;2.80;91.80
16032;DHT22;8120;48.308;8.914;2024-01-06T16:11:03;2.80;91.70